createdAt,value
2022-12-15T00:02:04.719Z,82.18
2022-12-15T00:07:43.775Z,81.94
2022-12-15T00:13:30.362Z,81.87
2022-12-15T00:19:10.337Z,81.81
2022-12-15T00:24:49.709Z,81.27
2022-12-15T00:30:29.891Z,81.52
2022-12-15T00:36:09.137Z,80.96
2022-12-15T00:41:29.638Z,81.07
2022-12-15T00:46:56.343Z,81.70
2022-12-15T00:52:37.487Z,81.85
2022-12-15T00:58:16.883Z,82.08
2022-12-15T01:03:55.979Z,82.23
2022-12-15T01:09:34.976Z,82.23
2022-12-15T01:15:13.841Z,82.39
2022-12-15T01:20:34.702Z,82.21
2022-12-15T01:25:55.945Z,82.44
2022-12-15T01:31:16.972Z,82.53
2022-12-15T01:37:56.833Z,82.34
2022-12-15T01:43:20.842Z,82.28
2022-12-15T01:48:49.401Z,82.06
2022-12-15T01:54:14.950Z,81.66
2022-12-15T01:59:48.845Z,81.07
2022-12-15T02:05:10.172Z,80.82
2022-12-15T02:10:52.130Z,80.87
2022-12-15T02:16:23.406Z,80.93
2022-12-15T02:22:09.943Z,81.21
2022-12-15T02:27:55.040Z,81.39
2022-12-15T02:33:23.951Z,81.10
2022-12-15T02:38:45.040Z,80.81
2022-12-15T02:44:12.437Z,80.52
2022-12-15T02:49:46.099Z,80.42
2022-12-15T02:55:28.474Z,80.28
2022-12-15T03:00:54.436Z,80.36
2022-12-15T03:06:16.559Z,80.41
2022-12-15T03:11:45.163Z,80.48
2022-12-15T03:17:07.492Z,80.44
2022-12-15T03:22:28.162Z,80.14
2022-12-15T03:27:49.124Z,80.22
2022-12-15T03:33:10.036Z,80.33
2022-12-15T03:38:30.626Z,80.40
2022-12-15T03:43:51.006Z,80.64
2022-12-15T03:49:11.857Z,80.52
2022-12-15T03:54:32.534Z,80.74
2022-12-15T03:59:53.649Z,80.92
2022-12-15T04:05:17.918Z,80.96
2022-12-15T04:10:38.669Z,80.99
2022-12-15T04:16:02.827Z,81.24
2022-12-15T04:21:23.226Z,81.42
2022-12-15T04:27:02.252Z,81.69
2022-12-15T04:32:41.993Z,81.66
2022-12-15T04:38:20.861Z,81.75
2022-12-15T04:44:00.015Z,81.80
2022-12-15T04:49:39.748Z,81.67
2022-12-15T04:55:18.611Z,81.42
2022-12-15T05:00:57.656Z,81.45
2022-12-15T05:06:36.909Z,81.42
2022-12-15T05:12:16.095Z,81.27
2022-12-15T05:17:55.207Z,81.35
2022-12-15T05:23:34.472Z,81.30
2022-12-15T05:29:14.235Z,81.37
2022-12-15T05:34:36.018Z,81.50
2022-12-15T05:39:56.528Z,81.11
2022-12-15T05:45:17.187Z,81.21
2022-12-15T05:50:37.759Z,81.28
2022-12-15T05:56:05.885Z,81.37
2022-12-15T06:01:27.682Z,81.62
2022-12-15T06:06:48.483Z,82.25
2022-12-15T06:12:09.003Z,82.43
2022-12-15T06:17:29.545Z,82.38
2022-12-15T06:22:50.302Z,82.54
2022-12-15T06:28:10.966Z,82.41
2022-12-15T06:33:31.699Z,81.99
2022-12-15T06:38:52.828Z,81.88
2022-12-15T06:44:15.652Z,81.68
2022-12-15T06:49:36.288Z,81.78
2022-12-15T06:54:57.024Z,81.86
2022-12-15T07:00:17.784Z,81.73
2022-12-15T07:05:38.469Z,81.79
2022-12-15T07:10:59.494Z,81.84
2022-12-15T07:16:21.804Z,81.83
2022-12-15T07:21:42.689Z,81.38
2022-12-15T07:27:03.196Z,81.42
2022-12-15T07:32:24.070Z,81.70
2022-12-15T07:37:44.585Z,81.97
2022-12-15T07:43:05.254Z,81.85
2022-12-15T07:48:27.208Z,81.99
2022-12-15T07:53:50.070Z,81.90
2022-12-15T07:59:10.553Z,82.16
2022-12-15T08:04:31.827Z,81.97
2022-12-15T08:09:53.821Z,81.93
2022-12-15T08:15:15.400Z,81.97
2022-12-15T08:20:36.300Z,81.85
2022-12-15T08:26:12.219Z,82.19
2022-12-15T08:31:33.789Z,81.99
2022-12-15T08:36:56.823Z,81.91
2022-12-15T08:42:17.533Z,81.68
2022-12-15T08:47:38.512Z,81.68
2022-12-15T08:53:29.082Z,81.99
2022-12-15T08:58:40.133Z,82.20
2022-12-15T09:04:01.421Z,82.21
2022-12-15T09:09:22.647Z,81.84
2022-12-15T09:14:43.214Z,81.59
2022-12-15T09:20:04.358Z,81.64
2022-12-15T09:25:25.984Z,81.69
2022-12-15T09:30:48.177Z,81.35
2022-12-15T09:36:10.772Z,81.55
2022-12-15T09:49:19.617Z,81.87
2022-12-15T09:54:43.870Z,81.66
2022-12-15T10:00:21.561Z,81.58
2022-12-15T10:11:56.086Z,81.23
2022-12-15T10:17:21.357Z,81.16
2022-12-15T10:22:42.156Z,81.08
2022-12-15T10:28:15.686Z,80.39
2022-12-15T10:33:48.537Z,79.96
2022-12-15T10:39:14.314Z,79.82
2022-12-15T10:44:41.614Z,80.04
2022-12-15T10:50:31.508Z,80.24
2022-12-15T10:56:01.218Z,80.23
2022-12-15T11:01:26.202Z,80.33
2022-12-15T11:06:48.437Z,80.67
2022-12-15T11:12:36.937Z,80.76
2022-12-15T11:18:11.261Z,81.30
2022-12-15T11:23:55.089Z,81.58
2022-12-15T11:29:59.211Z,81.17
2022-12-15T11:35:33.365Z,80.91
2022-12-15T11:40:57.949Z,81.09
2022-12-15T11:46:20.419Z,80.80
2022-12-15T11:52:03.265Z,80.71
2022-12-15T11:57:26.341Z,80.78
2022-12-15T12:03:14.746Z,80.95
2022-12-15T12:09:03.927Z,81.03
2022-12-15T12:15:02.416Z,81.03
2022-12-15T12:20:36.091Z,81.18
2022-12-15T12:26:11.371Z,81.38
2022-12-15T12:31:51.962Z,81.11
2022-12-15T12:37:22.703Z,80.71
2022-12-15T12:42:53.165Z,80.55
2022-12-15T12:48:38.624Z,80.46
2022-12-15T12:54:00.180Z,80.50
2022-12-15T12:59:29.511Z,80.35
2022-12-15T13:05:04.433Z,80.18
2022-12-15T13:10:24.986Z,80.13
2022-12-15T13:15:51.191Z,79.81
2022-12-15T13:21:35.602Z,80.06
2022-12-15T13:27:08.081Z,79.86
2022-12-15T13:32:44.185Z,79.35
2022-12-15T13:38:17.928Z,79.92
2022-12-15T13:43:45.978Z,80.07
2022-12-15T13:49:16.659Z,80.41
2022-12-15T13:54:41.374Z,80.46
2022-12-15T14:00:18.417Z,80.58
2022-12-15T14:05:42.958Z,80.81
2022-12-15T14:11:22.460Z,80.75
2022-12-15T14:16:44.498Z,80.80
2022-12-15T14:22:35.846Z,80.84
2022-12-15T14:27:56.806Z,80.61
2022-12-15T14:33:18.308Z,80.35
2022-12-15T14:38:54.033Z,80.49
2022-12-15T14:44:38.313Z,80.54
2022-12-15T14:50:01.590Z,80.53
2022-12-15T14:55:39.473Z,80.44
2022-12-15T15:01:02.015Z,80.49
2022-12-15T15:06:29.625Z,80.57
2022-12-15T15:12:16.467Z,80.40
2022-12-15T15:17:53.237Z,80.48
2022-12-15T15:23:17.955Z,80.24
2022-12-15T15:28:39.693Z,80.33
2022-12-15T15:34:00.514Z,80.28
2022-12-15T15:39:21.487Z,80.22
2022-12-15T15:44:42.137Z,80.38
2022-12-15T15:50:02.549Z,80.41
2022-12-15T15:55:33.700Z,80.43
2022-12-15T16:01:00.250Z,80.63
2022-12-15T16:06:24.401Z,80.71
2022-12-15T16:11:46.454Z,80.79
2022-12-15T16:17:09.182Z,80.72
2022-12-15T16:22:30.241Z,80.59
2022-12-15T16:27:51.147Z,80.73
2022-12-15T16:33:14.773Z,80.63
2022-12-15T16:38:38.046Z,80.51
2022-12-15T16:43:58.890Z,80.49
2022-12-15T16:49:19.425Z,80.46
2022-12-15T16:54:40.272Z,80.38
2022-12-15T17:00:01.645Z,80.66
2022-12-15T17:05:26.219Z,80.60
2022-12-15T17:10:49.306Z,80.76
2022-12-15T17:16:11.347Z,80.93
2022-12-15T17:21:36.569Z,80.85
2022-12-15T17:26:57.672Z,80.22
2022-12-15T17:32:18.051Z,80.15
2022-12-15T17:37:39.724Z,80.20
2022-12-15T17:43:00.173Z,80.25
2022-12-15T17:48:21.770Z,80.02
2022-12-15T17:53:44.595Z,80.04
2022-12-15T17:59:11.822Z,80.32
2022-12-15T18:04:32.638Z,80.36
2022-12-15T18:09:53.228Z,80.28
2022-12-15T18:15:20.849Z,80.24
2022-12-15T18:20:41.454Z,80.18
2022-12-15T18:26:03.357Z,80.16
2022-12-15T18:31:26.989Z,80.21
2022-12-15T18:36:47.971Z,80.29
2022-12-15T18:42:16.722Z,80.21
2022-12-15T18:47:37.305Z,80.27
2022-12-15T18:53:02.623Z,80.15
2022-12-15T18:58:29.723Z,80.04
2022-12-15T19:03:50.640Z,80.28
2022-12-15T19:09:29.320Z,80.23
2022-12-15T19:14:51.979Z,80.18
2022-12-15T19:20:37.476Z,80.33
2022-12-15T19:25:58.359Z,80.34
2022-12-15T19:31:19.232Z,80.38
2022-12-15T19:36:40.296Z,80.31
2022-12-15T19:42:03.084Z,80.27
2022-12-15T19:47:23.382Z,80.16
2022-12-15T19:52:48.245Z,80.37
2022-12-15T19:58:31.932Z,80.21
2022-12-15T20:03:53.183Z,80.34
2022-12-15T20:09:17.862Z,80.26
2022-12-15T20:14:38.772Z,79.47
2022-12-15T20:19:59.213Z,79.31
2022-12-15T20:25:29.474Z,78.89
2022-12-15T20:30:51.561Z,78.71
2022-12-15T20:36:15.180Z,78.59
2022-12-15T20:41:35.696Z,78.56
2022-12-15T20:46:56.555Z,78.77
2022-12-15T20:52:22.954Z,79.31
2022-12-15T20:57:43.444Z,79.56
2022-12-15T21:03:18.327Z,79.93
2022-12-15T21:08:38.879Z,80.14
2022-12-15T21:14:04.187Z,80.09
2022-12-15T21:19:25.695Z,80.13
2022-12-15T21:24:47.954Z,80.04
2022-12-15T21:30:17.390Z,80.12
2022-12-15T21:35:39.822Z,80.15
2022-12-15T21:41:03.318Z,80.02
2022-12-15T21:46:28.588Z,80.22
2022-12-15T21:51:56.370Z,79.98
2022-12-15T21:57:18.017Z,79.95
2022-12-15T22:02:39.253Z,79.94
2022-12-15T22:08:12.786Z,79.93
2022-12-15T22:13:33.804Z,79.76
2022-12-15T22:18:57.124Z,79.57
2022-12-15T22:24:17.867Z,79.60
2022-12-15T22:29:38.203Z,79.46
2022-12-15T22:34:58.737Z,79.46
2022-12-15T22:40:20.938Z,79.65
2022-12-15T22:45:42.823Z,79.54
2022-12-15T22:51:05.372Z,79.44
2022-12-15T22:56:36.892Z,79.23
2022-12-15T23:01:57.929Z,79.17
2022-12-15T23:07:19.844Z,79.38
2022-12-15T23:12:40.562Z,79.11
2022-12-15T23:18:01.189Z,79.09
2022-12-15T23:23:21.769Z,79.20
2022-12-15T23:28:43.475Z,79.31
2022-12-15T23:34:04.474Z,79.06
2022-12-15T23:39:25.369Z,79.06
2022-12-15T23:44:46.087Z,78.90
2022-12-15T23:50:07.338Z,78.80
2022-12-15T23:55:28.573Z,78.70
